createdAt,value
2023-01-27T00:00:20.475Z,7.47
2023-01-27T00:03:10.440Z,6.82
2023-01-27T00:06:01.210Z,6.88
2023-01-27T00:08:48.092Z,6.18
2023-01-27T00:11:53.798Z,7.10
2023-01-27T00:14:40.635Z,6.47
2023-01-27T00:17:27.448Z,5.03
2023-01-27T00:20:34.353Z,6.70
2023-01-27T00:23:42.372Z,6.68
2023-01-27T00:26:29.287Z,6.25
2023-01-27T00:29:16.106Z,6.57
2023-01-27T00:32:23.033Z,6.70
2023-01-27T00:35:09.896Z,6.47
2023-01-27T00:37:56.970Z,4.53
2023-01-27T00:41:03.869Z,7.05
2023-01-27T00:43:55.221Z,6.40
2023-01-27T00:46:42.825Z,7.03
2023-01-27T00:52:16.506Z,7.35
2023-01-27T00:55:03.414Z,6.77
2023-01-27T00:57:50.188Z,8.35
2023-01-27T01:00:36.997Z,9.00
2023-01-27T01:03:23.808Z,8.17
2023-01-27T01:06:12.722Z,8.33
2023-01-27T01:08:59.580Z,7.72
2023-01-27T01:11:46.425Z,7.60
2023-01-27T01:14:33.446Z,7.77
2023-01-27T01:17:20.380Z,7.70
2023-01-27T01:20:07.883Z,7.17
2023-01-27T01:22:54.731Z,7.68
2023-01-27T01:25:42.468Z,7.60
2023-01-27T01:31:18.803Z,7.18
2023-01-27T01:34:05.819Z,8.10
2023-01-27T01:36:52.605Z,8.25
2023-01-27T01:39:39.502Z,8.37
2023-01-27T01:42:26.284Z,7.78
2023-01-27T01:45:31.680Z,7.47
2023-01-27T01:48:34.044Z,7.47
2023-01-27T01:51:32.126Z,7.40
2023-01-27T01:54:24.900Z,8.02
2023-01-27T01:57:18.435Z,7.60
2023-01-27T02:00:07.934Z,7.70
2023-01-27T02:02:54.991Z,7.75
2023-01-27T02:05:44.976Z,8.07
2023-01-27T02:08:40.156Z,7.75
2023-01-27T02:11:28.697Z,7.50
2023-01-27T02:14:17.087Z,7.75
2023-01-27T02:17:05.365Z,7.95
2023-01-27T02:19:55.257Z,8.02
2023-01-27T02:23:17.673Z,7.97
2023-01-27T02:26:10.653Z,7.57
2023-01-27T02:29:05.690Z,8.20
2023-01-27T02:31:52.637Z,8.30
2023-01-27T02:34:39.884Z,6.50
2023-01-27T02:37:27.667Z,8.70
2023-01-27T02:40:15.215Z,8.80
2023-01-27T02:43:04.971Z,8.10
2023-01-27T02:45:51.783Z,8.70
2023-01-27T02:48:38.624Z,8.87
2023-01-27T02:51:25.580Z,9.03
2023-01-27T02:54:12.520Z,8.98
2023-01-27T02:56:59.839Z,8.07
2023-01-27T02:59:46.699Z,8.93
2023-01-27T03:02:33.602Z,9.10
2023-01-27T03:05:20.436Z,9.18
2023-01-27T03:08:07.413Z,9.03
2023-01-27T03:10:55.913Z,8.48
2023-01-27T03:13:42.802Z,8.50
2023-01-27T03:16:48.235Z,9.32
2023-01-27T03:19:35.029Z,9.63
2023-01-27T03:22:21.951Z,9.20
2023-01-27T03:25:09.309Z,8.90
2023-01-27T03:27:57.100Z,8.95
2023-01-27T03:33:30.835Z,8.52
2023-01-27T03:36:35.981Z,8.98
2023-01-27T03:39:41.543Z,8.70
2023-01-27T03:42:46.792Z,8.85
2023-01-27T03:45:52.333Z,8.90
2023-01-27T03:48:39.175Z,8.15
2023-01-27T03:51:27.335Z,8.17
2023-01-27T03:54:14.262Z,8.65
2023-01-27T03:57:06.615Z,8.20
2023-01-27T03:59:53.486Z,8.25
2023-01-27T04:02:59.171Z,8.40
2023-01-27T04:06:04.494Z,7.53
2023-01-27T04:08:51.448Z,7.93
2023-01-27T04:11:56.510Z,8.40
2023-01-27T04:14:43.485Z,8.98
2023-01-27T04:17:38.166Z,9.00
2023-01-27T04:20:25.009Z,9.13
2023-01-27T04:23:11.786Z,9.87
2023-01-27T04:26:00.407Z,9.20
2023-01-27T04:28:48.002Z,9.75
2023-01-27T04:31:35.408Z,9.13
2023-01-27T04:34:22.374Z,9.82
2023-01-27T04:37:10.089Z,9.43
2023-01-27T04:42:43.868Z,9.27
2023-01-27T04:45:30.933Z,10.52
2023-01-27T04:48:17.896Z,9.45
2023-01-27T04:51:04.853Z,9.98
2023-01-27T04:53:51.730Z,9.70
2023-01-27T04:56:42.558Z,9.45
2023-01-27T04:59:29.439Z,9.95
2023-01-27T05:02:16.366Z,7.55
2023-01-27T05:05:05.966Z,10.25
2023-01-27T05:07:52.764Z,9.52
2023-01-27T05:10:39.615Z,9.30
2023-01-27T05:13:26.457Z,8.90
2023-01-27T05:16:24.154Z,8.57
2023-01-27T05:19:11.349Z,8.48
2023-01-27T05:21:58.239Z,9.50
2023-01-27T05:24:45.023Z,9.68
2023-01-27T05:27:32.047Z,9.57
2023-01-27T05:30:19.016Z,9.83
2023-01-27T05:33:06.222Z,9.38
2023-01-27T05:35:53.026Z,9.43
2023-01-27T05:38:40.522Z,9.37
2023-01-27T05:41:31.146Z,9.55
2023-01-27T05:44:18.007Z,10.05
2023-01-27T05:47:06.052Z,9.63
2023-01-27T05:49:52.968Z,9.48
2023-01-27T05:52:39.832Z,10.55
2023-01-27T05:55:26.678Z,10.73
2023-01-27T05:58:13.488Z,11.60
2023-01-27T06:01:30.849Z,11.70
2023-01-27T06:04:17.705Z,12.75
2023-01-27T06:07:04.866Z,12.30
2023-01-27T06:09:51.666Z,11.73
2023-01-27T06:12:38.503Z,10.67
2023-01-27T06:15:25.331Z,10.43
2023-01-27T06:18:13.284Z,9.90
2023-01-27T06:21:01.969Z,9.13
2023-01-27T06:23:49.459Z,9.52
2023-01-27T06:26:36.638Z,9.90
2023-01-27T06:29:23.433Z,10.38
2023-01-27T06:32:10.312Z,10.50
2023-01-27T06:34:57.179Z,10.38
2023-01-27T06:37:44.043Z,10.70
2023-01-27T06:40:32.237Z,11.57
2023-01-27T06:43:19.094Z,11.23
2023-01-27T06:46:06.646Z,10.60
2023-01-27T06:48:53.436Z,10.70
2023-01-27T06:51:40.292Z,10.70
2023-01-27T06:54:27.059Z,11.17
2023-01-27T06:57:13.868Z,11.15
2023-01-27T07:00:00.718Z,10.17
2023-01-27T07:02:48.082Z,10.20
2023-01-27T07:05:35.032Z,10.82
2023-01-27T07:08:21.895Z,10.32
2023-01-27T07:11:08.831Z,10.23
2023-01-27T07:13:55.753Z,9.73
2023-01-27T07:16:42.652Z,9.30
2023-01-27T07:19:29.477Z,10.48
2023-01-27T07:22:16.284Z,10.43
2023-01-27T07:25:04.395Z,9.68
2023-01-27T07:27:51.320Z,10.05
2023-01-27T07:30:39.429Z,10.52
2023-01-27T07:33:26.302Z,9.15
2023-01-27T07:36:13.432Z,9.67
2023-01-27T07:39:00.282Z,9.70
2023-01-27T07:41:49.609Z,9.98
2023-01-27T07:44:36.469Z,9.80
2023-01-27T07:47:24.566Z,10.03
2023-01-27T07:50:12.833Z,10.80
2023-01-27T07:53:01.349Z,10.27
2023-01-27T07:55:48.170Z,9.43
2023-01-27T07:58:34.994Z,9.87
2023-01-27T08:01:22.196Z,8.83
2023-01-27T08:04:09.366Z,9.10
2023-01-27T08:06:56.147Z,10.13
2023-01-27T08:09:43.409Z,11.30
2023-01-27T08:12:30.344Z,10.75
2023-01-27T08:15:19.168Z,12.05
2023-01-27T08:18:06.138Z,11.52
2023-01-27T08:20:59.481Z,11.53
2023-01-27T08:23:46.443Z,12.80
2023-01-27T08:26:33.376Z,12.05
2023-01-27T08:29:20.214Z,13.45
2023-01-27T08:32:07.349Z,12.20
2023-01-27T08:34:55.527Z,11.75
2023-01-27T08:37:42.388Z,11.23
2023-01-27T08:40:29.392Z,11.60
2023-01-27T08:43:16.782Z,11.55
2023-01-27T08:46:04.113Z,11.93
2023-01-27T08:48:51.812Z,12.27
2023-01-27T08:51:38.761Z,11.95
2023-01-27T08:54:25.604Z,12.00
2023-01-27T08:57:12.401Z,11.85
2023-01-27T08:59:59.455Z,12.23
2023-01-27T09:02:46.695Z,11.13
2023-01-27T09:05:36.414Z,11.90
2023-01-27T09:08:23.590Z,10.65
2023-01-27T09:11:16.354Z,10.75
2023-01-27T09:14:03.916Z,10.75
2023-01-27T09:16:50.803Z,11.00
2023-01-27T09:19:37.644Z,11.40
2023-01-27T09:22:24.542Z,10.63
2023-01-27T09:25:16.395Z,10.32
2023-01-27T09:28:03.444Z,11.10
2023-01-27T09:30:50.263Z,10.73
2023-01-27T09:33:38.790Z,9.93
2023-01-27T09:36:26.609Z,8.85
2023-01-27T09:39:17.033Z,8.93
2023-01-27T09:42:19.695Z,9.32
2023-01-27T09:45:12.487Z,9.63
2023-01-27T09:48:25.119Z,9.55
2023-01-27T09:51:35.135Z,9.30
2023-01-27T09:54:40.135Z,8.63
2023-01-27T09:57:51.576Z,8.30
2023-01-27T10:01:02.335Z,8.65
2023-01-27T10:04:10.777Z,8.82
2023-01-27T10:07:24.467Z,8.82
2023-01-27T10:10:29.054Z,9.00
2023-01-27T10:13:31.522Z,10.20
2023-01-27T10:16:41.938Z,11.20
2023-01-27T10:19:40.623Z,10.27
2023-01-27T10:23:01.580Z,10.50
2023-01-27T10:26:22.442Z,10.90
2023-01-27T10:29:19.108Z,11.38
2023-01-27T10:32:20.324Z,11.13
2023-01-27T10:35:22.109Z,11.48
2023-01-27T10:38:41.238Z,11.70
2023-01-27T10:41:30.943Z,11.95
2023-01-27T10:44:45.833Z,11.50
2023-01-27T10:48:01.833Z,11.73
2023-01-27T10:51:08.584Z,12.73
2023-01-27T10:54:04.899Z,12.77
2023-01-27T10:57:06.594Z,12.63
2023-01-27T11:00:41.563Z,12.90
2023-01-27T11:03:48.711Z,13.02
2023-01-27T11:06:39.438Z,12.60
2023-01-27T11:09:31.449Z,13.25
2023-01-27T11:12:25.542Z,12.98
2023-01-27T11:15:33.145Z,14.00
2023-01-27T11:18:25.555Z,13.10
2023-01-27T11:21:25.610Z,13.35
2023-01-27T11:24:22.599Z,12.68
2023-01-27T11:27:46.683Z,12.60
2023-01-27T11:30:54.299Z,12.45
2023-01-27T11:34:03.784Z,11.65
2023-01-27T11:36:51.179Z,11.20
2023-01-27T11:39:37.981Z,10.43
2023-01-27T11:42:32.394Z,10.93
2023-01-27T11:45:21.354Z,11.55
2023-01-27T11:48:14.063Z,12.48
2023-01-27T11:51:02.358Z,10.70
2023-01-27T11:54:22.006Z,10.27
2023-01-27T11:57:20.744Z,11.52
2023-01-27T12:00:16.322Z,11.15
2023-01-27T12:03:11.708Z,10.10
2023-01-27T12:06:04.538Z,10.60
2023-01-27T12:08:51.353Z,10.30
2023-01-27T12:11:38.157Z,10.97
2023-01-27T12:14:24.909Z,11.27
2023-01-27T12:17:22.247Z,10.30
2023-01-27T12:20:38.670Z,10.73
2023-01-27T12:23:36.436Z,10.15
2023-01-27T12:26:36.557Z,11.95
2023-01-27T12:29:34.288Z,12.77
2023-01-27T12:32:24.715Z,13.10
2023-01-27T12:35:32.845Z,11.55
2023-01-27T12:38:26.515Z,7.95
2023-01-27T12:41:22.770Z,11.40
2023-01-27T12:44:17.268Z,11.02
2023-01-27T12:47:21.958Z,10.80
2023-01-27T12:50:24.130Z,10.80
2023-01-27T12:53:29.233Z,10.90
2023-01-27T12:56:20.912Z,11.82
2023-01-27T12:59:16.640Z,11.48
2023-01-27T13:02:30.778Z,12.32
2023-01-27T13:05:18.229Z,12.13
2023-01-27T13:08:05.968Z,12.38
2023-01-27T13:13:53.544Z,11.32
2023-01-27T13:16:40.555Z,10.90
2023-01-27T13:19:43.807Z,11.95
2023-01-27T13:22:40.252Z,11.55
2023-01-27T13:25:45.530Z,11.77
2023-01-27T13:28:55.224Z,11.77
2023-01-27T13:32:01.638Z,11.75
2023-01-27T13:35:15.545Z,11.95
2023-01-27T13:38:12.369Z,11.63
2023-01-27T13:41:00.019Z,11.88
2023-01-27T13:46:40.783Z,12.48
2023-01-27T13:49:42.755Z,11.88
2023-01-27T13:52:29.647Z,12.00
2023-01-27T13:55:17.777Z,13.57
2023-01-27T13:58:17.107Z,13.18
2023-01-27T14:01:42.194Z,14.20
2023-01-27T14:05:03.397Z,13.60
2023-01-27T14:08:10.180Z,14.00
2023-01-27T14:11:06.117Z,14.57
2023-01-27T14:13:55.000Z,16.45
2023-01-27T14:17:26.649Z,16.05
2023-01-27T14:20:47.332Z,16.08
2023-01-27T14:23:56.437Z,15.52
2023-01-27T14:27:05.408Z,15.82
2023-01-27T14:30:03.549Z,15.35
2023-01-27T14:33:19.574Z,15.90
2023-01-27T14:36:30.384Z,16.73
2023-01-27T14:39:21.028Z,16.98
2023-01-27T14:45:36.019Z,16.88
2023-01-27T14:49:03.170Z,17.27
2023-01-27T14:52:12.605Z,17.38
2023-01-27T14:55:17.541Z,16.58
2023-01-27T14:58:36.712Z,16.52
2023-01-27T15:01:35.282Z,18.35
2023-01-27T15:04:52.338Z,19.52
2023-01-27T15:08:04.792Z,18.50
2023-01-27T15:10:59.930Z,18.65
2023-01-27T15:14:10.979Z,16.20
2023-01-27T15:17:09.695Z,17.98
2023-01-27T15:20:07.334Z,17.05
2023-01-27T15:23:40.568Z,18.30
2023-01-27T15:26:29.172Z,17.27
2023-01-27T15:29:18.035Z,17.27
2023-01-27T15:32:17.021Z,16.65
2023-01-27T15:35:22.637Z,16.67
2023-01-27T15:38:18.687Z,17.20
2023-01-27T15:41:10.956Z,16.98
2023-01-27T15:44:19.460Z,16.42
2023-01-27T15:47:23.549Z,15.60
2023-01-27T15:50:20.271Z,16.40
2023-01-27T15:53:16.303Z,15.15
2023-01-27T15:56:04.647Z,15.70
2023-01-27T15:58:56.946Z,16.35
2023-01-27T16:01:43.786Z,15.15
2023-01-27T16:04:33.118Z,16.13
2023-01-27T16:07:31.123Z,16.10
2023-01-27T16:10:21.988Z,14.43
2023-01-27T16:13:15.125Z,16.00
2023-01-27T16:16:19.991Z,15.07
2023-01-27T16:19:11.007Z,16.40
2023-01-27T16:22:07.181Z,14.48
2023-01-27T16:24:59.667Z,15.38
2023-01-27T16:28:14.406Z,15.73
2023-01-27T16:31:01.575Z,15.10
2023-01-27T16:33:55.261Z,15.90
2023-01-27T16:36:42.269Z,16.05
2023-01-27T16:39:44.180Z,15.50
2023-01-27T16:42:54.735Z,15.98
2023-01-27T16:45:48.955Z,15.68
2023-01-27T16:48:46.322Z,16.00
2023-01-27T16:51:35.140Z,16.43
2023-01-27T16:54:44.607Z,15.73
2023-01-27T16:57:42.116Z,16.65
2023-01-27T17:00:33.393Z,15.93
2023-01-27T17:03:30.140Z,15.45
2023-01-27T17:06:17.999Z,16.25
2023-01-27T17:09:31.926Z,17.08
2023-01-27T17:12:47.044Z,17.63
2023-01-27T17:15:38.516Z,14.85
2023-01-27T17:18:26.059Z,16.67
2023-01-27T17:21:12.922Z,16.60
2023-01-27T17:24:04.656Z,17.40
2023-01-27T17:27:02.916Z,16.63
2023-01-27T17:32:41.517Z,16.00
2023-01-27T17:35:35.558Z,16.77
2023-01-27T17:38:34.854Z,15.55
2023-01-27T17:41:26.205Z,15.32
2023-01-27T17:44:15.020Z,14.93
2023-01-27T17:47:02.379Z,16.33
2023-01-27T17:49:50.651Z,16.45
2023-01-27T17:52:38.470Z,15.75
2023-01-27T17:55:30.017Z,16.83
2023-01-27T17:58:24.537Z,17.08
2023-01-27T18:01:12.598Z,16.40
2023-01-27T18:03:59.895Z,17.83
2023-01-27T18:06:46.712Z,17.48
2023-01-27T18:09:33.552Z,16.93
2023-01-27T18:12:35.519Z,16.97
2023-01-27T18:15:37.677Z,16.33
2023-01-27T18:18:33.599Z,16.75
2023-01-27T18:21:25.663Z,15.93
2023-01-27T18:24:21.878Z,18.30
2023-01-27T18:27:32.513Z,16.45
2023-01-27T18:30:21.499Z,16.33
2023-01-27T18:33:11.496Z,17.13
2023-01-27T18:36:00.233Z,17.90
2023-01-27T18:38:49.912Z,18.58
2023-01-27T18:41:47.332Z,18.80
2023-01-27T18:44:37.339Z,18.40
2023-01-27T18:47:27.347Z,19.25
2023-01-27T18:50:18.139Z,18.65
2023-01-27T18:53:16.628Z,18.23
2023-01-27T18:56:04.586Z,20.15
2023-01-27T18:58:54.128Z,18.85
2023-01-27T19:01:41.079Z,19.70
2023-01-27T19:04:28.196Z,14.35
2023-01-27T19:07:17.754Z,19.65
2023-01-27T19:10:11.777Z,19.38
2023-01-27T19:13:00.635Z,18.77
2023-01-27T19:15:51.128Z,20.55
2023-01-27T19:18:39.509Z,20.15
2023-01-27T19:21:26.550Z,17.65
2023-01-27T19:24:13.577Z,19.05
2023-01-27T19:27:01.804Z,18.75
2023-01-27T19:29:50.364Z,20.25
2023-01-27T19:32:37.248Z,20.15
2023-01-27T19:35:26.382Z,20.85
2023-01-27T19:38:13.655Z,20.67
2023-01-27T19:41:00.534Z,19.98
2023-01-27T19:43:50.060Z,20.35
2023-01-27T19:46:38.905Z,19.08
2023-01-27T19:49:25.811Z,18.50
2023-01-27T19:52:12.648Z,18.27
2023-01-27T19:54:59.612Z,18.73
2023-01-27T19:57:47.127Z,19.52
2023-01-27T20:00:37.007Z,17.40
2023-01-27T20:03:24.750Z,17.92
2023-01-27T20:09:03.675Z,18.15
2023-01-27T20:11:50.485Z,19.08
2023-01-27T20:14:37.459Z,18.53
2023-01-27T20:17:24.294Z,19.70
2023-01-27T20:20:11.434Z,13.03
2023-01-27T20:22:58.280Z,17.38
2023-01-27T20:25:45.518Z,17.40
2023-01-27T20:28:32.325Z,17.92
2023-01-27T20:31:24.775Z,18.73
2023-01-27T20:34:11.696Z,18.17
2023-01-27T20:36:58.572Z,18.70
2023-01-27T20:39:45.395Z,18.42
2023-01-27T20:42:32.528Z,20.00
2023-01-27T20:45:19.958Z,18.45
2023-01-27T20:48:07.037Z,18.83
2023-01-27T20:51:12.768Z,19.77
2023-01-27T20:54:00.834Z,19.20
2023-01-27T20:56:47.675Z,20.02
2023-01-27T20:59:34.629Z,21.50
2023-01-27T21:02:21.631Z,21.27
2023-01-27T21:05:09.016Z,20.67
2023-01-27T21:07:55.878Z,20.55
2023-01-27T21:10:42.787Z,20.67
2023-01-27T21:13:30.014Z,20.10
2023-01-27T21:16:17.166Z,19.35
2023-01-27T21:19:04.148Z,19.27
2023-01-27T21:21:50.979Z,19.10
2023-01-27T21:24:37.830Z,19.70
2023-01-27T21:27:24.725Z,20.25
2023-01-27T21:30:12.702Z,19.75
2023-01-27T21:32:59.700Z,17.63
2023-01-27T21:35:54.423Z,17.98
2023-01-27T21:38:41.239Z,16.33
2023-01-27T21:41:46.696Z,17.43
2023-01-27T21:44:51.982Z,16.65
2023-01-27T21:47:39.145Z,15.90
2023-01-27T21:50:26.104Z,15.13
2023-01-27T21:53:12.886Z,16.25
2023-01-27T21:56:07.798Z,16.20
2023-01-27T21:58:54.560Z,15.32
2023-01-27T22:01:41.429Z,15.90
2023-01-27T22:04:28.217Z,16.13
2023-01-27T22:07:17.142Z,15.43
2023-01-27T22:10:17.943Z,15.63
2023-01-27T22:13:04.873Z,15.82
2023-01-27T22:15:51.723Z,14.73
2023-01-27T22:18:38.524Z,16.73
2023-01-27T22:21:25.360Z,16.70
2023-01-27T22:24:12.462Z,15.77
2023-01-27T22:26:59.338Z,16.83
2023-01-27T22:29:46.154Z,16.97
2023-01-27T22:32:32.988Z,16.20
2023-01-27T22:35:19.889Z,15.50
2023-01-27T22:38:07.156Z,15.85
2023-01-27T22:40:58.641Z,14.75
2023-01-27T22:43:49.020Z,15.98
2023-01-27T22:46:35.929Z,17.15
2023-01-27T22:49:22.702Z,16.48
2023-01-27T22:52:09.558Z,16.33
2023-01-27T22:54:56.488Z,16.50
2023-01-27T22:57:45.328Z,15.75
2023-01-27T23:00:32.085Z,16.92
2023-01-27T23:03:19.377Z,17.80
2023-01-27T23:06:07.536Z,18.35
2023-01-27T23:08:54.372Z,17.40
2023-01-27T23:11:41.268Z,17.93
2023-01-27T23:14:28.062Z,19.00
2023-01-27T23:17:15.235Z,16.73
2023-01-27T23:20:02.444Z,15.82
2023-01-27T23:22:49.479Z,17.95
2023-01-27T23:25:41.042Z,18.30
2023-01-27T23:28:27.995Z,16.95
2023-01-27T23:31:15.330Z,17.95
2023-01-27T23:34:02.144Z,16.80
2023-01-27T23:36:49.149Z,15.87
2023-01-27T23:39:35.995Z,16.23
2023-01-27T23:42:23.011Z,15.60
2023-01-27T23:45:10.136Z,16.73
2023-01-27T23:47:56.982Z,16.13
2023-01-27T23:50:43.880Z,17.27
2023-01-27T23:53:30.703Z,17.15
2023-01-27T23:56:20.202Z,16.60
2023-01-27T23:59:07.096Z,16.90
